sensor_id;sensor_type;location;lat;lon;timestamp;pressure;altitude;pressure_sealevel;temperature;humidity
35649;BME280;21768;48.562;13.414;2023-12-20T00:01:38;97329.25;;;1.52;74.84
35649;BME280;21768;48.562;13.414;2023-12-20T00:04:03;97329.25;;;1.52;74.90
35649;BME280;21768;48.562;13.414;2023-12-20T00:06:30;97328.53;;;1.53;75.06
35649;BME280;21768;48.562;13.414;2023-12-20T00:08:56;97323.13;;;1.57;74.72
35649;BME280;21768;48.562;13.414;2023-12-20T00:11:23;97319.31;;;1.52;74.91
35649;BME280;21768;48.562;13.414;2023-12-20T00:13:48;97325.63;;;1.57;75.09
35649;BME280;21768;48.562;13.414;2023-12-20T00:16:14;97321.13;;;1.70;74.70
35649;BME280;21768;48.562;13.414;2023-12-20T00:18:39;97295.94;;;1.85;74.71
35649;BME280;21768;48.562;13.414;2023-12-20T00:21:04;97295.63;;;1.99;74.16
35649;BME280;21768;48.562;13.414;2023-12-20T00:23:30;97284.38;;;2.11;74.06
35649;BME280;21768;48.562;13.414;2023-12-20T00:25:55;97264.47;;;2.20;73.60
35649;BME280;21768;48.562;13.414;2023-12-20T00:28:21;97273.50;;;2.28;73.64
35649;BME280;21768;48.562;13.414;2023-12-20T00:30:47;97287.41;;;2.34;73.67
35649;BME280;21768;48.562;13.414;2023-12-20T00:33:13;97292.69;;;2.37;73.45
35649;BME280;21768;48.562;13.414;2023-12-20T00:35:38;97297.22;;;2.42;73.37
35649;BME280;21768;48.562;13.414;2023-12-20T00:38:03;97311.44;;;2.43;73.41
35649;BME280;21768;48.562;13.414;2023-12-20T00:40:30;97316.06;;;2.48;73.41
35649;BME280;21768;48.562;13.414;2023-12-20T00:42:55;97312.56;;;2.55;73.22
35649;BME280;21768;48.562;13.414;2023-12-20T00:45:21;97318.13;;;2.61;72.91
35649;BME280;21768;48.562;13.414;2023-12-20T00:47:46;97318.69;;;2.67;72.99
35649;BME280;21768;48.562;13.414;2023-12-20T00:50:12;97321.72;;;2.73;72.72
35649;BME280;21768;48.562;13.414;2023-12-20T00:52:37;97310.59;;;2.78;72.69
35649;BME280;21768;48.562;13.414;2023-12-20T00:55:03;97314.38;;;2.83;72.42
35649;BME280;21768;48.562;13.414;2023-12-20T00:57:29;97316.44;;;2.87;72.42
35649;BME280;21768;48.562;13.414;2023-12-20T00:59:54;97324.19;;;2.90;72.57
35649;BME280;21768;48.562;13.414;2023-12-20T01:02:19;97324.31;;;2.92;72.47
35649;BME280;21768;48.562;13.414;2023-12-20T01:04:46;97314.78;;;2.96;72.42
35649;BME280;21768;48.562;13.414;2023-12-20T01:07:11;97316.41;;;2.96;72.49
35649;BME280;21768;48.562;13.414;2023-12-20T01:09:37;97311.53;;;2.97;72.54
35649;BME280;21768;48.562;13.414;2023-12-20T01:12:03;97309.47;;;3.02;72.58
35649;BME280;21768;48.562;13.414;2023-12-20T01:14:28;97298.91;;;3.04;72.82
35649;BME280;21768;48.562;13.414;2023-12-20T01:16:53;97303.88;;;3.04;72.34
35649;BME280;21768;48.562;13.414;2023-12-20T01:19:19;97287.75;;;3.10;72.36
35649;BME280;21768;48.562;13.414;2023-12-20T01:21:44;97289.78;;;3.14;72.08
35649;BME280;21768;48.562;13.414;2023-12-20T01:24:09;97292.69;;;3.18;72.19
35649;BME280;21768;48.562;13.414;2023-12-20T01:26:35;97297.97;;;3.21;72.18
35649;BME280;21768;48.562;13.414;2023-12-20T01:29:00;97294.72;;;3.22;72.00
35649;BME280;21768;48.562;13.414;2023-12-20T01:31:26;97293.22;;;3.24;71.92
35649;BME280;21768;48.562;13.414;2023-12-20T01:33:52;97292.63;;;3.27;71.97
35649;BME280;21768;48.562;13.414;2023-12-20T01:36:17;97282.53;;;3.25;71.90
35649;BME280;21768;48.562;13.414;2023-12-20T01:38:43;97273.88;;;3.22;71.99
35649;BME280;21768;48.562;13.414;2023-12-20T01:41:08;97280.63;;;3.23;71.94
35649;BME280;21768;48.562;13.414;2023-12-20T01:43:33;97278.13;;;3.23;71.94
35649;BME280;21768;48.562;13.414;2023-12-20T01:45:59;97270.66;;;3.23;71.99
35649;BME280;21768;48.562;13.414;2023-12-20T01:48:25;97262.72;;;3.27;71.92
35649;BME280;21768;48.562;13.414;2023-12-20T01:50:51;97254.38;;;3.26;71.88
35649;BME280;21768;48.562;13.414;2023-12-20T01:53:19;97260.09;;;3.25;71.71
35649;BME280;21768;48.562;13.414;2023-12-20T01:55:47;97262.44;;;3.24;71.89
35649;BME280;21768;48.562;13.414;2023-12-20T01:58:15;97260.09;;;3.25;71.82
35649;BME280;21768;48.562;13.414;2023-12-20T02:00:41;97242.19;;;3.29;71.82
35649;BME280;21768;48.562;13.414;2023-12-20T02:03:06;97236.03;;;3.26;71.75
35649;BME280;21768;48.562;13.414;2023-12-20T02:05:33;97231.06;;;3.26;71.69
35649;BME280;21768;48.562;13.414;2023-12-20T02:07:59;97233.69;;;3.27;71.80
35649;BME280;21768;48.562;13.414;2023-12-20T02:10:25;97226.34;;;3.29;71.76
35649;BME280;21768;48.562;13.414;2023-12-20T02:12:50;97224.13;;;3.32;71.82
35649;BME280;21768;48.562;13.414;2023-12-20T02:15:16;97216.06;;;3.34;71.67
35649;BME280;21768;48.562;13.414;2023-12-20T02:17:41;97207.69;;;3.34;71.67
35649;BME280;21768;48.562;13.414;2023-12-20T02:20:08;97198.47;;;3.33;71.65
35649;BME280;21768;48.562;13.414;2023-12-20T02:22:33;97199.81;;;3.29;71.61
35649;BME280;21768;48.562;13.414;2023-12-20T02:24:59;97192.78;;;3.25;71.44
35649;BME280;21768;48.562;13.414;2023-12-20T02:27:24;97189.41;;;3.25;71.72
35649;BME280;21768;48.562;13.414;2023-12-20T02:29:50;97192.94;;;3.27;71.69
35649;BME280;21768;48.562;13.414;2023-12-20T02:32:19;97178.97;;;3.29;71.69
35649;BME280;21768;48.562;13.414;2023-12-20T02:34:47;97177.38;;;3.29;71.71
35649;BME280;21768;48.562;13.414;2023-12-20T02:37:13;97170.03;;;3.31;71.80
35649;BME280;21768;48.562;13.414;2023-12-20T02:39:38;97178.53;;;3.33;71.91
35649;BME280;21768;48.562;13.414;2023-12-20T02:42:04;97176.44;;;3.37;71.85
35649;BME280;21768;48.562;13.414;2023-12-20T02:44:29;97167.88;;;3.44;71.67
35649;BME280;21768;48.562;13.414;2023-12-20T02:46:54;97171.63;;;3.49;71.45
35649;BME280;21768;48.562;13.414;2023-12-20T02:49:20;97175.75;;;3.49;71.63
35649;BME280;21768;48.562;13.414;2023-12-20T02:51:45;97167.78;;;3.53;71.76
35649;BME280;21768;48.562;13.414;2023-12-20T02:54:11;97168.94;;;3.56;71.73
35649;BME280;21768;48.562;13.414;2023-12-20T02:56:37;97160.72;;;3.57;71.63
35649;BME280;21768;48.562;13.414;2023-12-20T02:59:02;97151.97;;;3.52;71.68
35649;BME280;21768;48.562;13.414;2023-12-20T03:01:30;97153.44;;;3.50;71.60
35649;BME280;21768;48.562;13.414;2023-12-20T03:03:55;97153.16;;;3.47;71.81
35649;BME280;21768;48.562;13.414;2023-12-20T03:06:21;97159.31;;;3.51;71.51
35649;BME280;21768;48.562;13.414;2023-12-20T03:08:46;97140.22;;;3.51;71.82
35649;BME280;21768;48.562;13.414;2023-12-20T03:11:12;97144.00;;;3.56;71.72
35649;BME280;21768;48.562;13.414;2023-12-20T03:13:37;97131.75;;;3.49;71.55
35649;BME280;21768;48.562;13.414;2023-12-20T03:16:10;97137.75;;;3.51;71.74
35649;BME280;21768;48.562;13.414;2023-12-20T03:18:35;97124.66;;;3.54;71.93
35649;BME280;21768;48.562;13.414;2023-12-20T03:21:01;97138.75;;;3.53;71.86
35649;BME280;21768;48.562;13.414;2023-12-20T03:23:26;97141.09;;;3.52;71.88
35649;BME280;21768;48.562;13.414;2023-12-20T03:25:52;97134.03;;;3.56;72.02
35649;BME280;21768;48.562;13.414;2023-12-20T03:28:18;97131.94;;;3.61;71.73
35649;BME280;21768;48.562;13.414;2023-12-20T03:30:44;97129.59;;;3.62;71.93
35649;BME280;21768;48.562;13.414;2023-12-20T03:33:10;97135.09;;;3.68;71.96
35649;BME280;21768;48.562;13.414;2023-12-20T03:35:35;97136.72;;;3.68;71.85
35649;BME280;21768;48.562;13.414;2023-12-20T03:38:00;97126.34;;;3.63;72.20
35649;BME280;21768;48.562;13.414;2023-12-20T03:40:26;97119.00;;;3.65;72.05
35649;BME280;21768;48.562;13.414;2023-12-20T03:42:51;97116.63;;;3.66;72.16
35649;BME280;21768;48.562;13.414;2023-12-20T03:45:16;97110.78;;;3.66;72.10
35649;BME280;21768;48.562;13.414;2023-12-20T03:47:42;97109.03;;;3.65;72.12
35649;BME280;21768;48.562;13.414;2023-12-20T03:50:07;97112.25;;;3.64;72.31
35649;BME280;21768;48.562;13.414;2023-12-20T03:52:33;97116.16;;;3.70;72.21
35649;BME280;21768;48.562;13.414;2023-12-20T03:54:58;97124.63;;;3.72;72.53
35649;BME280;21768;48.562;13.414;2023-12-20T03:57:23;97118.88;;;3.73;72.10
35649;BME280;21768;48.562;13.414;2023-12-20T03:59:49;97119.16;;;3.76;72.06
35649;BME280;21768;48.562;13.414;2023-12-20T04:02:14;97116.78;;;3.78;72.09
35649;BME280;21768;48.562;13.414;2023-12-20T04:04:39;97128.38;;;3.78;72.16
35649;BME280;21768;48.562;13.414;2023-12-20T04:07:05;97130.00;;;3.77;72.28
35649;BME280;21768;48.562;13.414;2023-12-20T04:09:30;97132.63;;;3.79;72.18
35649;BME280;21768;48.562;13.414;2023-12-20T04:11:56;97123.66;;;3.81;72.13
35649;BME280;21768;48.562;13.414;2023-12-20T04:14:21;97127.03;;;3.81;72.34
35649;BME280;21768;48.562;13.414;2023-12-20T04:16:46;97131.63;;;3.76;72.26
35649;BME280;21768;48.562;13.414;2023-12-20T04:19:12;97131.50;;;3.75;72.18
35649;BME280;21768;48.562;13.414;2023-12-20T04:21:37;97134.72;;;3.74;72.15
35649;BME280;21768;48.562;13.414;2023-12-20T04:24:02;97124.00;;;3.75;71.83
35649;BME280;21768;48.562;13.414;2023-12-20T04:26:28;97135.34;;;3.71;72.12
35649;BME280;21768;48.562;13.414;2023-12-20T04:28:54;97128.63;;;3.70;72.32
35649;BME280;21768;48.562;13.414;2023-12-20T04:31:19;97134.72;;;3.74;72.21
35649;BME280;21768;48.562;13.414;2023-12-20T04:33:45;97134.38;;;3.80;72.17
35649;BME280;21768;48.562;13.414;2023-12-20T04:36:10;97130.06;;;3.87;72.01
35649;BME280;21768;48.562;13.414;2023-12-20T04:38:36;97131.69;;;3.87;72.25
35649;BME280;21768;48.562;13.414;2023-12-20T04:41:01;97124.06;;;3.85;72.18
35649;BME280;21768;48.562;13.414;2023-12-20T04:43:27;97134.66;;;3.83;72.35
35649;BME280;21768;48.562;13.414;2023-12-20T04:45:53;97128.94;;;3.84;72.19
35649;BME280;21768;48.562;13.414;2023-12-20T04:48:18;97124.69;;;3.83;72.59
35649;BME280;21768;48.562;13.414;2023-12-20T04:50:44;97131.41;;;3.84;72.48
35649;BME280;21768;48.562;13.414;2023-12-20T04:53:09;97135.19;;;3.89;72.47
35649;BME280;21768;48.562;13.414;2023-12-20T04:55:35;97136.66;;;3.87;72.39
35649;BME280;21768;48.562;13.414;2023-12-20T04:58:00;97131.69;;;3.87;72.24
35649;BME280;21768;48.562;13.414;2023-12-20T05:00:26;97144.44;;;3.90;72.24
35649;BME280;21768;48.562;13.414;2023-12-20T05:02:51;97146.19;;;3.91;72.28
35649;BME280;21768;48.562;13.414;2023-12-20T05:05:17;97146.03;;;3.89;72.20
35649;BME280;21768;48.562;13.414;2023-12-20T05:07:43;97139.44;;;3.90;72.40
35649;BME280;21768;48.562;13.414;2023-12-20T05:10:09;97142.81;;;3.90;72.32
35649;BME280;21768;48.562;13.414;2023-12-20T05:12:34;97146.91;;;3.90;72.26
35649;BME280;21768;48.562;13.414;2023-12-20T05:15:00;97148.41;;;3.88;72.30
35649;BME280;21768;48.562;13.414;2023-12-20T05:17:26;97143.28;;;3.86;72.48
35649;BME280;21768;48.562;13.414;2023-12-20T05:19:51;97149.28;;;3.88;72.30
35649;BME280;21768;48.562;13.414;2023-12-20T05:22:17;97153.41;;;3.88;72.46
35649;BME280;21768;48.562;13.414;2023-12-20T05:24:42;97154.41;;;3.90;72.56
35649;BME280;21768;48.562;13.414;2023-12-20T05:27:08;97163.91;;;3.94;72.39
35649;BME280;21768;48.562;13.414;2023-12-20T05:29:33;97162.44;;;3.96;72.45
35649;BME280;21768;48.562;13.414;2023-12-20T05:31:58;97168.25;;;3.96;72.02
35649;BME280;21768;48.562;13.414;2023-12-20T05:34:24;97172.28;;;3.94;72.54
35649;BME280;21768;48.562;13.414;2023-12-20T05:36:49;97164.03;;;3.95;72.70
35649;BME280;21768;48.562;13.414;2023-12-20T05:39:15;97178.63;;;4.01;72.67
35649;BME280;21768;48.562;13.414;2023-12-20T05:41:40;97180.53;;;4.03;72.38
35649;BME280;21768;48.562;13.414;2023-12-20T05:44:06;97186.41;;;4.04;72.49
35649;BME280;21768;48.562;13.414;2023-12-20T05:46:31;97192.66;;;4.09;72.38
35649;BME280;21768;48.562;13.414;2023-12-20T05:48:56;97190.44;;;4.12;72.67
35649;BME280;21768;48.562;13.414;2023-12-20T05:51:22;97191.31;;;4.13;72.39
35649;BME280;21768;48.562;13.414;2023-12-20T05:53:47;97188.53;;;4.09;72.52
35649;BME280;21768;48.562;13.414;2023-12-20T05:56:15;97198.13;;;4.05;72.74
35649;BME280;21768;48.562;13.414;2023-12-20T05:58:41;97199.00;;;4.05;72.74
35649;BME280;21768;48.562;13.414;2023-12-20T06:01:06;97201.63;;;4.07;72.42
35649;BME280;21768;48.562;13.414;2023-12-20T06:03:33;97212.50;;;4.07;72.67
35649;BME280;21768;48.562;13.414;2023-12-20T06:05:59;97221.13;;;4.11;72.62
35649;BME280;21768;48.562;13.414;2023-12-20T06:08:25;97223.63;;;4.11;72.54
35649;BME280;21768;48.562;13.414;2023-12-20T06:10:51;97232.72;;;4.10;72.56
35649;BME280;21768;48.562;13.414;2023-12-20T06:13:16;97240.09;;;4.09;72.07
35649;BME280;21768;48.562;13.414;2023-12-20T06:15:42;97240.34;;;4.12;72.38
35649;BME280;21768;48.562;13.414;2023-12-20T06:18:07;97235.63;;;4.15;72.55
35649;BME280;21768;48.562;13.414;2023-12-20T06:20:33;97235.63;;;4.15;72.44
35649;BME280;21768;48.562;13.414;2023-12-20T06:22:58;97231.84;;;4.10;72.40
35649;BME280;21768;48.562;13.414;2023-12-20T06:25:24;97242.19;;;4.04;72.45
35649;BME280;21768;48.562;13.414;2023-12-20T06:27:49;97238.06;;;4.05;72.52
35649;BME280;21768;48.562;13.414;2023-12-20T06:30:16;97233.34;;;4.08;72.46
35649;BME280;21768;48.562;13.414;2023-12-20T06:32:42;97232.59;;;4.09;72.48
35649;BME280;21768;48.562;13.414;2023-12-20T06:35:08;97231.84;;;4.10;72.30
35649;BME280;21768;48.562;13.414;2023-12-20T06:37:34;97229.09;;;4.07;72.49
35649;BME280;21768;48.562;13.414;2023-12-20T06:40:00;97235.22;;;4.10;72.41
35649;BME280;21768;48.562;13.414;2023-12-20T06:42:25;97239.94;;;4.07;72.54
35649;BME280;21768;48.562;13.414;2023-12-20T06:44:50;97238.06;;;4.05;72.55
35649;BME280;21768;48.562;13.414;2023-12-20T06:47:16;97238.47;;;4.09;72.85
35649;BME280;21768;48.562;13.414;2023-12-20T06:49:41;97242.09;;;4.13;72.70
35649;BME280;21768;48.562;13.414;2023-12-20T06:52:06;97244.41;;;4.20;72.84
35649;BME280;21768;48.562;13.414;2023-12-20T06:54:32;97244.03;;;4.26;72.77
35649;BME280;21768;48.562;13.414;2023-12-20T06:56:59;97243.56;;;4.30;72.84
35649;BME280;21768;48.562;13.414;2023-12-20T06:59:24;97248.94;;;4.34;72.90
35649;BME280;21768;48.562;13.414;2023-12-20T07:01:51;97257.72;;;4.39;73.06
35649;BME280;21768;48.562;13.414;2023-12-20T07:04:16;97258.72;;;4.41;73.25
35649;BME280;21768;48.562;13.414;2023-12-20T07:06:47;97262.97;;;4.42;73.03
35649;BME280;21768;48.562;13.414;2023-12-20T07:09:13;97270.59;;;4.44;73.09
35649;BME280;21768;48.562;13.414;2023-12-20T07:11:38;97274.72;;;4.43;72.91
35649;BME280;21768;48.562;13.414;2023-12-20T07:14:04;97273.97;;;4.44;73.09
35649;BME280;21768;48.562;13.414;2023-12-20T07:16:29;97283.81;;;4.43;73.24
35649;BME280;21768;48.562;13.414;2023-12-20T07:18:55;97286.47;;;4.44;73.25
35649;BME280;21768;48.562;13.414;2023-12-20T07:21:21;97290.06;;;4.48;73.45
35649;BME280;21768;48.562;13.414;2023-12-20T07:23:47;97293.84;;;4.53;73.41
35649;BME280;21768;48.562;13.414;2023-12-20T07:26:12;97304.50;;;4.61;73.51
35649;BME280;21768;48.562;13.414;2023-12-20T07:28:37;97304.03;;;4.65;73.16
35649;BME280;21768;48.562;13.414;2023-12-20T07:31:03;97310.50;;;4.63;73.31
35649;BME280;21768;48.562;13.414;2023-12-20T07:33:28;97307.53;;;4.67;73.41
35649;BME280;21768;48.562;13.414;2023-12-20T07:35:54;97312.00;;;4.71;73.43
35649;BME280;21768;48.562;13.414;2023-12-20T07:38:19;97314.03;;;4.75;73.41
35649;BME280;21768;48.562;13.414;2023-12-20T07:40:44;97321.03;;;4.79;73.45
35649;BME280;21768;48.562;13.414;2023-12-20T07:43:10;97319.69;;;4.83;73.18
35649;BME280;21768;48.562;13.414;2023-12-20T07:45:35;97321.56;;;4.85;73.33
35649;BME280;21768;48.562;13.414;2023-12-20T07:48:00;97325.22;;;4.89;73.33
35649;BME280;21768;48.562;13.414;2023-12-20T07:50:26;97330.69;;;4.85;73.44
35649;BME280;21768;48.562;13.414;2023-12-20T07:52:52;97320.34;;;4.90;73.54
35649;BME280;21768;48.562;13.414;2023-12-20T07:55:18;97323.84;;;4.92;73.33
35649;BME280;21768;48.562;13.414;2023-12-20T07:57:43;97326.34;;;4.92;73.32
35649;BME280;21768;48.562;13.414;2023-12-20T08:00:09;97325.63;;;4.93;73.33
35649;BME280;21768;48.562;13.414;2023-12-20T08:02:35;97320.09;;;4.97;73.37
35649;BME280;21768;48.562;13.414;2023-12-20T08:05:00;97329.63;;;5.01;73.45
35649;BME280;21768;48.562;13.414;2023-12-20T08:07:26;97324.88;;;5.04;73.39
35649;BME280;21768;48.562;13.414;2023-12-20T08:09:51;97326.63;;;5.05;73.68
35649;BME280;21768;48.562;13.414;2023-12-20T08:12:17;97319.53;;;5.10;73.60
35649;BME280;21768;48.562;13.414;2023-12-20T08:14:42;97317.03;;;5.10;73.64
35649;BME280;21768;48.562;13.414;2023-12-20T08:17:07;97329.78;;;5.13;73.93
35649;BME280;21768;48.562;13.414;2023-12-20T08:19:33;97338.28;;;5.15;74.14
35649;BME280;21768;48.562;13.414;2023-12-20T08:21:58;97335.31;;;5.19;74.02
35649;BME280;21768;48.562;13.414;2023-12-20T08:24:23;97338.78;;;5.21;74.05
35649;BME280;21768;48.562;13.414;2023-12-20T08:26:49;97339.91;;;5.25;74.18
35649;BME280;21768;48.562;13.414;2023-12-20T08:29:14;97334.31;;;5.27;74.34
35649;BME280;21768;48.562;13.414;2023-12-20T08:31:39;97329.44;;;5.29;74.43
35649;BME280;21768;48.562;13.414;2023-12-20T08:34:05;97327.44;;;5.35;74.31
35649;BME280;21768;48.562;13.414;2023-12-20T08:36:30;97334.47;;;5.39;74.29
35649;BME280;21768;48.562;13.414;2023-12-20T08:38:56;97340.59;;;5.42;74.52
35649;BME280;21768;48.562;13.414;2023-12-20T08:41:21;97346.97;;;5.49;74.67
35649;BME280;21768;48.562;13.414;2023-12-20T08:43:47;97351.88;;;5.58;74.64
35649;BME280;21768;48.562;13.414;2023-12-20T08:46:14;97346.38;;;5.62;74.77
35649;BME280;21768;48.562;13.414;2023-12-20T08:48:39;97347.63;;;5.67;74.83
35649;BME280;21768;48.562;13.414;2023-12-20T08:51:05;97347.84;;;5.70;74.99
35649;BME280;21768;48.562;13.414;2023-12-20T08:53:33;97335.25;;;5.68;74.92
35649;BME280;21768;48.562;13.414;2023-12-20T08:55:59;97341.97;;;5.69;75.14
35649;BME280;21768;48.562;13.414;2023-12-20T08:58:26;97338.97;;;5.73;75.15
35649;BME280;21768;48.562;13.414;2023-12-20T09:00:52;97344.63;;;5.81;75.26
35649;BME280;21768;48.562;13.414;2023-12-20T09:03:17;97341.88;;;5.88;75.34
35649;BME280;21768;48.562;13.414;2023-12-20T09:05:42;97348.03;;;5.92;75.35
35649;BME280;21768;48.562;13.414;2023-12-20T09:08:08;97347.16;;;5.91;75.68
35649;BME280;21768;48.562;13.414;2023-12-20T09:10:35;97336.25;;;6.01;75.47
35649;BME280;21768;48.562;13.414;2023-12-20T09:13:01;97334.00;;;6.04;75.36
35649;BME280;21768;48.562;13.414;2023-12-20T09:15:27;97331.75;;;6.07;75.34
35649;BME280;21768;48.562;13.414;2023-12-20T09:17:53;97353.03;;;6.12;75.52
35649;BME280;21768;48.562;13.414;2023-12-20T09:20:19;97337.72;;;6.19;75.33
35649;BME280;21768;48.562;13.414;2023-12-20T09:22:44;97333.19;;;6.25;75.35
35649;BME280;21768;48.562;13.414;2023-12-20T09:25:10;97331.19;;;6.31;75.20
35649;BME280;21768;48.562;13.414;2023-12-20T09:27:36;97335.31;;;6.31;75.22
35649;BME280;21768;48.562;13.414;2023-12-20T09:30:02;97333.44;;;6.28;75.43
35649;BME280;21768;48.562;13.414;2023-12-20T09:32:28;97336.47;;;6.24;75.32
35649;BME280;21768;48.562;13.414;2023-12-20T09:34:54;97344.22;;;6.27;75.44
35649;BME280;21768;48.562;13.414;2023-12-20T09:37:20;97337.84;;;6.31;75.48
35649;BME280;21768;48.562;13.414;2023-12-20T09:39:45;97333.69;;;6.31;75.43
35649;BME280;21768;48.562;13.414;2023-12-20T09:42:12;97330.06;;;6.28;75.49
35649;BME280;21768;48.562;13.414;2023-12-20T09:44:42;97328.44;;;6.28;75.57
35649;BME280;21768;48.562;13.414;2023-12-20T09:47:09;97324.31;;;6.29;75.51
35649;BME280;21768;48.562;13.414;2023-12-20T09:49:35;97325.44;;;6.32;75.54
35649;BME280;21768;48.562;13.414;2023-12-20T09:52:02;97321.69;;;6.27;75.65
35649;BME280;21768;48.562;13.414;2023-12-20T09:54:30;97313.66;;;6.31;75.69
35649;BME280;21768;48.562;13.414;2023-12-20T09:56:56;97317.16;;;6.33;75.47
35649;BME280;21768;48.562;13.414;2023-12-20T09:59:21;97306.50;;;6.36;75.62
35649;BME280;21768;48.562;13.414;2023-12-20T10:01:48;97308.03;;;6.34;75.64
35649;BME280;21768;48.562;13.414;2023-12-20T10:04:15;97315.66;;;6.35;75.77
35649;BME280;21768;48.562;13.414;2023-12-20T10:06:42;97317.66;;;6.39;75.73
35649;BME280;21768;48.562;13.414;2023-12-20T10:09:08;97311.13;;;6.41;75.82
35649;BME280;21768;48.562;13.414;2023-12-20T10:11:36;97309.25;;;6.39;75.77
35649;BME280;21768;48.562;13.414;2023-12-20T10:14:03;97306.50;;;6.36;75.81
35649;BME280;21768;48.562;13.414;2023-12-20T10:16:29;97296.84;;;6.40;75.73
35649;BME280;21768;48.562;13.414;2023-12-20T10:18:55;97297.84;;;6.42;75.83
35649;BME280;21768;48.562;13.414;2023-12-20T10:21:21;97294.56;;;6.43;75.71
35649;BME280;21768;48.562;13.414;2023-12-20T10:23:48;97287.84;;;6.42;75.67
35649;BME280;21768;48.562;13.414;2023-12-20T10:26:21;97291.72;;;6.39;75.83
35649;BME280;21768;48.562;13.414;2023-12-20T10:28:50;97290.97;;;6.40;75.97
35649;BME280;21768;48.562;13.414;2023-12-20T10:31:26;97297.75;;;6.41;76.00
35649;BME280;21768;48.562;13.414;2023-12-20T10:33:52;97291.22;;;6.43;75.93
35649;BME280;21768;48.562;13.414;2023-12-20T10:36:18;97289.34;;;6.40;75.81
35649;BME280;21768;48.562;13.414;2023-12-20T10:38:44;97282.22;;;6.35;76.16
35649;BME280;21768;48.562;13.414;2023-12-20T10:41:10;97281.09;;;6.31;76.03
35649;BME280;21768;48.562;13.414;2023-12-20T10:43:36;97276.09;;;6.31;76.25
35649;BME280;21768;48.562;13.414;2023-12-20T10:46:03;97280.94;;;6.40;76.22
35649;BME280;21768;48.562;13.414;2023-12-20T10:48:30;97264.50;;;6.43;76.07
35649;BME280;21768;48.562;13.414;2023-12-20T10:50:57;97271.94;;;6.42;76.30
35649;BME280;21768;48.562;13.414;2023-12-20T10:53:24;97262.13;;;6.45;76.23
35649;BME280;21768;48.562;13.414;2023-12-20T10:55:52;97269.94;;;6.38;76.44
35649;BME280;21768;48.562;13.414;2023-12-20T10:58:20;97274.81;;;6.36;76.44
35649;BME280;21768;48.562;13.414;2023-12-20T11:00:47;97266.94;;;6.32;76.77
35649;BME280;21768;48.562;13.414;2023-12-20T11:03:14;97268.81;;;6.34;76.81
35649;BME280;21768;48.562;13.414;2023-12-20T11:06:03;97271.94;;;6.42;76.81
35649;BME280;21768;48.562;13.414;2023-12-20T11:08:36;97280.03;;;6.49;76.64
35649;BME280;21768;48.562;13.414;2023-12-20T11:11:16;97283.75;;;6.55;76.58
35649;BME280;21768;48.562;13.414;2023-12-20T11:14:02;97278.25;;;6.48;76.64
35649;BME280;21768;48.562;13.414;2023-12-20T11:16:31;97274.38;;;6.52;76.70
35649;BME280;21768;48.562;13.414;2023-12-20T11:18:56;97267.38;;;6.48;76.61
35649;BME280;21768;48.562;13.414;2023-12-20T11:21:22;97270.25;;;6.53;76.60
35649;BME280;21768;48.562;13.414;2023-12-20T11:23:47;97267.09;;;6.55;76.50
35649;BME280;21768;48.562;13.414;2023-12-20T11:26:15;97264.47;;;6.54;76.36
35649;BME280;21768;48.562;13.414;2023-12-20T11:28:41;97255.44;;;6.56;76.55
35649;BME280;21768;48.562;13.414;2023-12-20T11:31:07;97257.06;;;6.55;76.44
35649;BME280;21768;48.562;13.414;2023-12-20T11:36:02;97263.19;;;6.59;76.65
35649;BME280;21768;48.562;13.414;2023-12-20T11:38:36;97260.94;;;6.62;76.56
35649;BME280;21768;48.562;13.414;2023-12-20T11:41:05;97252.91;;;6.66;76.45
35649;BME280;21768;48.562;13.414;2023-12-20T11:43:38;97261.19;;;6.65;76.44
35649;BME280;21768;48.562;13.414;2023-12-20T11:46:08;97262.94;;;6.66;76.53
35649;BME280;21768;48.562;13.414;2023-12-20T11:48:36;97256.41;;;6.68;76.60
35649;BME280;21768;48.562;13.414;2023-12-20T11:51:02;97253.34;;;6.72;76.42
35649;BME280;21768;48.562;13.414;2023-12-20T11:53:34;97256.84;;;6.74;76.25
35649;BME280;21768;48.562;13.414;2023-12-20T11:56:00;97255.09;;;6.73;76.43
35649;BME280;21768;48.562;13.414;2023-12-20T11:58:25;97258.84;;;6.78;76.49
35649;BME280;21768;48.562;13.414;2023-12-20T12:00:51;97256.94;;;6.86;76.35
35649;BME280;21768;48.562;13.414;2023-12-20T12:03:16;97257.81;;;6.86;76.20
35649;BME280;21768;48.562;13.414;2023-12-20T12:05:42;97257.97;;;6.77;75.84
35649;BME280;21768;48.562;13.414;2023-12-20T12:08:07;97259.72;;;6.78;76.29
35649;BME280;21768;48.562;13.414;2023-12-20T12:10:33;97259.31;;;6.84;76.28
35649;BME280;21768;48.562;13.414;2023-12-20T12:12:58;97244.50;;;6.87;76.34
35649;BME280;21768;48.562;13.414;2023-12-20T12:15:25;97240.28;;;6.98;76.21
35649;BME280;21768;48.562;13.414;2023-12-20T12:17:54;97238.03;;;7.01;76.02
35649;BME280;21768;48.562;13.414;2023-12-20T12:20:20;97228.09;;;7.02;75.93
35649;BME280;21768;48.562;13.414;2023-12-20T12:22:46;97223.31;;;7.05;75.95
35649;BME280;21768;48.562;13.414;2023-12-20T12:25:16;97223.66;;;7.10;76.19
35649;BME280;21768;48.562;13.414;2023-12-20T12:27:41;97220.94;;;7.18;75.91
35649;BME280;21768;48.562;13.414;2023-12-20T12:30:08;97213.00;;;7.24;75.85
35649;BME280;21768;48.562;13.414;2023-12-20T12:32:35;97217.16;;;7.24;75.81
35649;BME280;21768;48.562;13.414;2023-12-20T12:35:03;97217.38;;;7.27;75.85
35649;BME280;21768;48.562;13.414;2023-12-20T12:37:28;97218.72;;;7.33;75.87
35649;BME280;21768;48.562;13.414;2023-12-20T12:39:54;97230.50;;;7.34;75.77
35649;BME280;21768;48.562;13.414;2023-12-20T12:42:20;97211.84;;;7.31;75.84
35649;BME280;21768;48.562;13.414;2023-12-20T12:44:47;97217.91;;;7.23;75.41
35649;BME280;21768;48.562;13.414;2023-12-20T12:47:12;97222.56;;;7.06;75.30
35649;BME280;21768;48.562;13.414;2023-12-20T12:49:37;97218.16;;;6.92;75.37
35649;BME280;21768;48.562;13.414;2023-12-20T12:52:05;97206.19;;;6.78;75.20
35649;BME280;21768;48.562;13.414;2023-12-20T12:54:30;97220.44;;;6.67;75.26
35649;BME280;21768;48.562;13.414;2023-12-20T12:56:56;97193.31;;;6.52;74.85